createdAt,value
2023-02-19T00:01:41.243Z,100643.09
2023-02-19T00:04:11.959Z,100635.06
2023-02-19T00:06:41.792Z,100635.25
2023-02-19T00:09:10.938Z,100636.09
2023-02-19T00:11:38.942Z,100643.28
2023-02-19T00:14:07.413Z,100632.56
2023-02-19T00:16:36.477Z,100639.38
2023-02-19T00:19:06.313Z,100635.84
2023-02-19T00:21:34.395Z,100635.25
2023-02-19T00:24:06.316Z,100627.38
2023-02-19T00:26:34.692Z,100628.97
2023-02-19T00:29:03.302Z,100619.94
2023-02-19T00:31:33.377Z,100632.69
2023-02-19T00:34:02.569Z,100632.63
2023-02-19T00:36:31.517Z,100633.03
2023-02-19T00:38:59.867Z,100629.50
2023-02-19T00:41:29.059Z,100619.03
2023-02-19T00:43:58.045Z,100615.34
2023-02-19T00:46:27.989Z,100631.63
2023-02-19T00:48:56.575Z,100629.81
2023-02-19T00:51:25.869Z,100639.72
2023-02-19T00:53:54.011Z,100627.75
2023-02-19T00:56:21.825Z,100643.41
2023-02-19T00:58:51.374Z,100637.16
2023-02-19T01:01:19.336Z,100633.03
2023-02-19T01:03:47.218Z,100624.00
2023-02-19T01:06:16.940Z,100631.97
2023-02-19T01:08:45.275Z,100623.38
2023-02-19T01:11:13.589Z,100633.28
2023-02-19T01:13:41.923Z,100627.66
2023-02-19T01:16:15.087Z,100630.94
2023-02-19T01:18:43.514Z,100632.66
2023-02-19T01:21:13.681Z,100626.69
2023-02-19T01:23:41.652Z,100634.91
2023-02-19T01:26:10.994Z,100634.91
2023-02-19T01:28:38.928Z,100630.19
2023-02-19T01:31:09.051Z,100633.09
2023-02-19T01:33:38.739Z,100634.72
2023-02-19T01:36:07.530Z,100646.31
2023-02-19T01:38:35.189Z,100634.34
2023-02-19T01:41:05.670Z,100637.69
2023-02-19T01:43:33.765Z,100641.38
2023-02-19T01:46:01.798Z,100639.72
2023-02-19T01:48:33.437Z,100637.22
2023-02-19T01:51:06.752Z,100639.28
2023-02-19T01:53:38.017Z,100638.28
2023-02-19T01:56:06.457Z,100639.78
2023-02-19T01:58:35.898Z,100638.56
2023-02-19T02:01:06.605Z,100640.19
2023-02-19T02:07:48.652Z,100635.88
2023-02-19T02:10:22.385Z,100632.75
2023-02-19T02:12:51.072Z,100641.81
2023-02-19T02:15:19.460Z,100638.53
2023-02-19T02:17:53.855Z,100638.75
2023-02-19T02:20:33.893Z,100642.59
2023-02-19T02:23:10.266Z,100635.84
2023-02-19T02:26:02.105Z,100634.38
2023-02-19T02:28:47.960Z,100634.78
2023-02-19T02:31:18.985Z,100634.81
2023-02-19T02:33:51.424Z,100624.53
2023-02-19T02:36:21.204Z,100618.78
2023-02-19T02:38:50.043Z,100620.47
2023-02-19T02:41:17.817Z,100624.16
2023-02-19T02:43:45.526Z,100627.25
2023-02-19T02:46:14.026Z,100640.25
2023-02-19T02:48:46.082Z,100631.22
2023-02-19T02:51:18.532Z,100630.22
2023-02-19T02:54:07.390Z,100620.38
2023-02-19T02:56:36.151Z,100627.19
2023-02-19T02:59:05.526Z,100635.63
2023-02-19T03:01:53.434Z,100640.38
2023-02-19T03:04:26.139Z,100625.53
2023-02-19T03:06:54.896Z,100627.63
2023-02-19T03:09:30.078Z,100621.63
2023-02-19T03:12:16.114Z,100630.91
2023-02-19T03:15:03.996Z,100631.69
2023-02-19T03:17:53.462Z,100645.13
2023-02-19T03:20:24.637Z,100643.44
2023-02-19T03:22:53.561Z,100643.19
2023-02-19T03:25:40.709Z,100648.38
2023-02-19T03:28:11.768Z,100648.69
2023-02-19T03:30:43.106Z,100655.72
2023-02-19T03:33:12.579Z,100657.59
2023-02-19T03:35:44.136Z,100657.00
2023-02-19T03:38:18.759Z,100663.59
2023-02-19T03:40:54.072Z,100663.81
2023-02-19T03:43:24.260Z,100664.44
2023-02-19T03:45:57.695Z,100668.94
2023-02-19T03:48:32.940Z,100675.97
2023-02-19T03:51:10.212Z,100682.38
2023-02-19T03:53:45.060Z,100673.72
2023-02-19T03:56:16.313Z,100686.91
2023-02-19T03:58:51.582Z,100684.03
2023-02-19T04:01:25.816Z,100691.03
2023-02-19T04:03:55.568Z,100689.81
2023-02-19T04:06:28.377Z,100697.59
2023-02-19T04:08:58.224Z,100697.41
2023-02-19T04:11:26.740Z,100696.81
2023-02-19T04:13:57.977Z,100700.28
2023-02-19T04:16:29.425Z,100708.75
2023-02-19T04:19:00.442Z,100711.25
2023-02-19T04:21:30.663Z,100715.34
2023-02-19T04:24:00.697Z,100716.16
2023-02-19T04:26:28.706Z,100721.50
2023-02-19T04:28:56.592Z,100722.16
2023-02-19T04:31:24.952Z,100717.84
2023-02-19T04:33:52.662Z,100728.94
2023-02-19T04:36:20.384Z,100750.97
2023-02-19T04:38:49.454Z,100738.44
2023-02-19T04:41:17.097Z,100736.34
2023-02-19T04:43:45.016Z,100743.13
2023-02-19T04:46:12.684Z,100753.47
2023-02-19T04:48:40.348Z,100751.84
2023-02-19T04:51:09.059Z,100763.56
2023-02-19T04:53:37.513Z,100754.69
2023-02-19T04:56:11.799Z,100749.56
2023-02-19T04:58:39.674Z,100765.22
2023-02-19T05:01:07.847Z,100777.34
2023-02-19T05:03:36.088Z,100772.59
2023-02-19T05:06:04.747Z,100779.63
2023-02-19T05:08:32.446Z,100779.19
2023-02-19T05:11:00.636Z,100786.84
2023-02-19T05:13:29.705Z,100792.00
2023-02-19T05:15:58.464Z,100804.78
2023-02-19T05:18:26.653Z,100799.19
2023-02-19T05:20:55.016Z,100807.66
2023-02-19T05:23:22.879Z,100814.84
2023-02-19T05:25:50.694Z,100800.63
2023-02-19T05:28:18.571Z,100805.13
2023-02-19T05:30:48.989Z,100813.00
2023-02-19T05:33:17.407Z,100816.69
2023-02-19T05:35:46.211Z,100824.72
2023-02-19T05:38:14.103Z,100828.84
2023-02-19T05:40:42.316Z,100821.22
2023-02-19T05:43:10.455Z,100826.22
2023-02-19T05:45:38.469Z,100826.16
2023-02-19T05:48:08.340Z,100831.31
2023-02-19T05:50:39.683Z,100843.44
2023-02-19T05:53:07.682Z,100843.44
2023-02-19T05:55:36.357Z,100848.59
2023-02-19T05:58:04.264Z,100845.69
2023-02-19T06:00:33.248Z,100838.50
2023-02-19T06:03:01.228Z,100849.59
2023-02-19T06:05:30.428Z,100855.78
2023-02-19T06:07:58.073Z,100848.78
2023-02-19T06:10:25.739Z,100852.88
2023-02-19T06:12:54.180Z,100851.03
2023-02-19T06:15:22.133Z,100859.66
2023-02-19T06:17:50.314Z,100866.06
2023-02-19T06:20:18.315Z,100866.47
2023-02-19T06:22:47.535Z,100869.34
2023-02-19T06:25:15.229Z,100875.53
2023-02-19T06:27:42.869Z,100872.69
2023-02-19T06:30:12.293Z,100885.00
2023-02-19T06:32:40.296Z,100881.50
2023-02-19T06:35:08.426Z,100894.09
2023-02-19T06:37:36.058Z,100885.63
2023-02-19T06:40:05.637Z,100885.81
2023-02-19T06:42:33.662Z,100896.94
2023-02-19T06:45:01.552Z,100896.53
2023-02-19T06:47:32.268Z,100902.91
2023-02-19T06:49:59.958Z,100912.16
2023-02-19T06:52:27.890Z,100922.44
2023-02-19T06:54:55.739Z,100929.91
2023-02-19T06:57:24.809Z,100930.72
2023-02-19T06:59:52.439Z,100934.00
2023-02-19T07:02:20.238Z,100941.00
2023-02-19T07:04:47.845Z,100948.41
2023-02-19T07:07:15.450Z,100951.69
2023-02-19T07:09:43.080Z,100954.22
2023-02-19T07:12:11.427Z,100962.03
2023-02-19T07:14:40.459Z,100978.47
2023-02-19T07:17:08.119Z,100973.94
2023-02-19T07:19:37.961Z,100983.03
2023-02-19T07:22:05.911Z,100978.44
2023-02-19T07:24:33.582Z,100986.47
2023-02-19T07:27:01.249Z,100992.00
2023-02-19T07:29:28.928Z,100999.03
2023-02-19T07:31:58.032Z,101000.91
2023-02-19T07:34:25.904Z,101010.50
2023-02-19T07:36:53.594Z,101005.59
2023-02-19T07:39:21.429Z,101019.19
2023-02-19T07:41:49.088Z,101016.84
2023-02-19T07:44:17.116Z,101016.22
2023-02-19T07:46:44.866Z,101028.53
2023-02-19T07:49:13.926Z,101020.50
2023-02-19T07:51:41.711Z,101027.28
2023-02-19T07:54:09.653Z,101028.94
2023-02-19T07:56:37.296Z,101034.44
2023-02-19T07:59:04.948Z,101045.28
2023-02-19T08:01:58.404Z,101051.03
2023-02-19T08:04:27.734Z,101053.84
2023-02-19T08:06:55.797Z,101076.16
2023-02-19T08:09:23.662Z,101082.78
2023-02-19T08:12:09.179Z,101102.19
2023-02-19T08:14:37.021Z,101084.31
2023-02-19T08:17:04.705Z,101085.53
2023-02-19T08:19:33.798Z,101084.78
2023-02-19T08:22:01.443Z,101084.88
2023-02-19T08:24:29.113Z,101094.34
2023-02-19T08:26:56.854Z,101094.53
2023-02-19T08:29:24.697Z,101104.75
2023-02-19T08:31:52.400Z,101101.53
2023-02-19T08:34:20.089Z,101105.59
2023-02-19T08:36:49.171Z,101119.75
2023-02-19T08:39:17.673Z,101117.16
2023-02-19T08:41:46.208Z,101114.41
2023-02-19T08:44:13.878Z,101111.09
2023-02-19T08:46:41.780Z,101125.84
2023-02-19T08:49:09.579Z,101131.69
2023-02-19T08:51:37.351Z,101135.47
2023-02-19T08:54:06.543Z,101150.00
2023-02-19T08:56:34.207Z,101157.09
2023-02-19T08:59:01.817Z,101165.63
2023-02-19T09:01:29.521Z,101165.28
2023-02-19T09:03:57.292Z,101161.66
2023-02-19T09:06:24.954Z,101166.56
2023-02-19T09:08:52.678Z,101177.97
2023-02-19T09:11:21.746Z,101180.41
2023-02-19T09:13:49.364Z,101188.03
2023-02-19T09:16:17.231Z,101192.38
2023-02-19T09:18:45.804Z,101195.50
2023-02-19T09:21:13.741Z,101207.03
2023-02-19T09:23:41.511Z,101205.59
2023-02-19T09:26:11.376Z,101214.53
2023-02-19T09:28:43.137Z,101218.09
2023-02-19T09:31:13.359Z,101218.94
2023-02-19T09:33:43.758Z,101228.34
2023-02-19T09:36:11.901Z,101224.38
2023-02-19T09:38:40.578Z,101232.16
2023-02-19T09:41:10.763Z,101236.94
2023-02-19T09:43:40.068Z,101233.44
2023-02-19T09:46:11.874Z,101251.00
2023-02-19T09:48:39.679Z,101264.63
2023-02-19T09:51:09.354Z,101259.47
2023-02-19T09:53:42.392Z,101264.59
2023-02-19T09:56:10.140Z,101272.34
2023-02-19T09:58:44.643Z,101284.19
2023-02-19T10:01:13.541Z,101284.72
2023-02-19T10:03:44.360Z,101291.91
2023-02-19T10:06:19.045Z,101301.28
2023-02-19T10:08:47.236Z,101304.94
2023-02-19T10:11:15.279Z,101306.41
2023-02-19T10:13:47.797Z,101312.16
2023-02-19T10:16:19.094Z,101332.25
2023-02-19T10:18:47.549Z,101328.53
2023-02-19T10:21:19.545Z,101337.72
2023-02-19T10:23:48.702Z,101329.22
2023-02-19T10:26:16.471Z,101329.47
2023-02-19T10:28:45.623Z,101325.19
2023-02-19T10:31:20.568Z,101335.25
2023-02-19T10:33:52.729Z,101335.47
2023-02-19T10:36:28.283Z,101344.22
2023-02-19T10:38:57.938Z,101350.31
2023-02-19T10:41:26.842Z,101362.22
2023-02-19T10:43:58.831Z,101373.25
2023-02-19T10:46:28.257Z,101369.03
2023-02-19T10:48:57.768Z,101383.25
2023-02-19T10:51:32.750Z,101379.88
2023-02-19T10:54:08.321Z,101381.63
2023-02-19T10:56:38.701Z,101379.06
2023-02-19T10:59:25.114Z,101381.97
2023-02-19T11:01:57.520Z,101373.94
2023-02-19T11:04:26.192Z,101370.47
2023-02-19T11:06:54.857Z,101378.31
2023-02-19T11:09:28.796Z,101385.38
2023-02-19T11:11:58.521Z,101386.53
2023-02-19T11:14:28.683Z,101380.63
2023-02-19T11:16:58.068Z,101389.28
2023-02-19T11:19:30.191Z,101391.28
2023-02-19T11:21:58.367Z,101391.28
2023-02-19T11:24:31.517Z,101387.91
2023-02-19T11:26:59.780Z,101389.94
2023-02-19T11:29:34.646Z,101384.47
2023-02-19T11:32:29.347Z,101387.66
2023-02-19T11:35:17.838Z,101390.69
2023-02-19T11:37:59.770Z,101393.69
2023-02-19T11:40:41.689Z,101381.66
2023-02-19T11:43:19.976Z,101388.22
2023-02-19T11:45:53.375Z,101395.00
2023-02-19T11:48:31.245Z,101388.28
2023-02-19T11:51:06.882Z,101391.13
2023-02-19T11:53:37.923Z,101396.31
2023-02-19T11:56:16.688Z,101389.44
2023-02-19T11:59:00.832Z,101391.41
2023-02-19T12:01:45.213Z,101389.19
2023-02-19T12:04:28.265Z,101398.03
2023-02-19T12:07:02.477Z,101395.13
2023-02-19T12:09:46.663Z,101387.06
2023-02-19T12:12:25.998Z,101391.69
2023-02-19T12:15:10.524Z,101394.75
2023-02-19T12:17:51.728Z,101410.53
2023-02-19T12:20:25.517Z,101405.47
2023-02-19T12:22:59.312Z,101392.22
2023-02-19T12:25:34.501Z,101416.16
2023-02-19T12:28:15.077Z,101406.63
2023-02-19T12:30:53.912Z,101403.34
2023-02-19T12:33:36.898Z,101414.63
2023-02-19T12:36:10.985Z,101410.00
2023-02-19T12:38:45.518Z,101425.13
2023-02-19T12:41:21.059Z,101415.06
2023-02-19T12:43:54.741Z,101407.03
2023-02-19T12:46:26.973Z,101415.28
2023-02-19T12:49:00.487Z,101431.69
2023-02-19T12:51:31.905Z,101429.38
2023-02-19T12:54:03.984Z,101429.16
2023-02-19T12:56:35.688Z,101427.06
2023-02-19T12:59:06.450Z,101425.50
2023-02-19T13:01:39.318Z,101443.13
2023-02-19T13:04:19.234Z,101414.94
2023-02-19T13:06:53.169Z,101416.47
2023-02-19T13:09:23.592Z,101431.38
2023-02-19T13:11:55.948Z,101437.09
2023-02-19T13:14:28.004Z,101441.03
2023-02-19T13:16:59.155Z,101456.44
2023-02-19T13:19:28.297Z,101456.59
2023-02-19T13:22:20.316Z,101450.59
2023-02-19T13:24:48.178Z,101432.88
2023-02-19T13:27:35.023Z,101446.91
2023-02-19T13:30:11.742Z,101440.78
2023-02-19T13:32:51.739Z,101447.09
2023-02-19T13:35:27.608Z,101447.22
2023-02-19T13:37:56.876Z,101440.34
2023-02-19T13:40:32.222Z,101433.78
2023-02-19T13:43:01.798Z,101441.66
2023-02-19T13:45:34.435Z,101447.91
2023-02-19T13:48:15.568Z,101460.50
2023-02-19T13:50:44.906Z,101460.09
2023-02-19T13:53:47.641Z,101470.13
2023-02-19T13:56:38.299Z,101485.72
2023-02-19T13:59:24.256Z,101474.44
2023-02-19T14:02:14.469Z,101477.72
2023-02-19T14:04:51.819Z,101474.66
2023-02-19T14:07:51.125Z,101470.78
2023-02-19T14:10:52.836Z,101484.44
2023-02-19T14:13:54.762Z,101483.53
2023-02-19T14:16:31.849Z,101489.44
2023-02-19T14:18:59.840Z,101494.44
2023-02-19T14:21:36.452Z,101506.34
2023-02-19T14:24:08.559Z,101503.53
2023-02-19T14:26:36.401Z,101506.41
2023-02-19T14:29:04.187Z,101499.53
2023-02-19T14:31:33.452Z,101505.47
2023-02-19T14:34:03.396Z,101507.47
2023-02-19T14:36:35.764Z,101495.66
2023-02-19T14:39:06.650Z,101497.31
2023-02-19T14:41:37.453Z,101496.28
2023-02-19T14:44:07.635Z,101489.25
2023-02-19T14:46:39.438Z,101482.03
2023-02-19T14:49:14.820Z,101472.28
2023-02-19T14:51:44.564Z,101468.22
2023-02-19T14:54:17.070Z,101463.41
2023-02-19T14:56:45.854Z,101458.91
2023-02-19T14:59:25.896Z,101460.88
2023-02-19T15:01:58.205Z,101471.38
2023-02-19T15:04:27.700Z,101459.13
2023-02-19T15:06:57.342Z,101453.09
2023-02-19T15:09:32.440Z,101446.81
2023-02-19T15:12:02.673Z,101438.22
2023-02-19T15:14:32.326Z,101440.47
2023-02-19T15:17:02.213Z,101431.41
2023-02-19T15:19:30.420Z,101426.72
2023-02-19T15:21:58.107Z,101422.03
2023-02-19T15:24:28.297Z,101418.31
2023-02-19T15:26:56.371Z,101408.06
2023-02-19T15:29:25.334Z,101412.78
2023-02-19T15:31:54.675Z,101413.34
2023-02-19T15:34:24.567Z,101424.88
2023-02-19T15:36:54.644Z,101431.41
2023-02-19T15:39:24.235Z,101449.44
2023-02-19T15:42:00.182Z,101451.28
2023-02-19T15:44:33.520Z,101449.50
2023-02-19T15:47:07.406Z,101454.47
2023-02-19T15:49:42.399Z,101459.97
2023-02-19T15:52:12.186Z,101461.78
2023-02-19T15:54:44.980Z,101453.72
2023-02-19T15:57:19.674Z,101457.56
2023-02-19T15:59:50.198Z,101452.59
2023-02-19T16:02:18.016Z,101468.75
2023-02-19T16:04:46.632Z,101477.25
2023-02-19T16:07:25.577Z,101479.03
2023-02-19T16:10:07.701Z,101480.78
2023-02-19T16:12:36.996Z,101490.63
2023-02-19T16:15:13.879Z,101489.06
2023-02-19T16:17:44.718Z,101482.59
2023-02-19T16:20:20.923Z,101481.75
2023-02-19T16:22:48.900Z,101480.25
2023-02-19T16:25:28.515Z,101480.31
2023-02-19T16:27:59.204Z,101485.94
2023-02-19T16:30:33.835Z,101485.44
2023-02-19T16:33:21.559Z,101495.59
2023-02-19T16:35:52.212Z,101491.66
2023-02-19T16:38:20.834Z,101503.59
2023-02-19T16:41:08.640Z,101506.03
2023-02-19T16:43:42.470Z,101513.63
2023-02-19T16:46:11.792Z,101515.63
2023-02-19T16:48:39.724Z,101518.50
2023-02-19T16:51:09.401Z,101521.03
2023-02-19T16:53:37.293Z,101523.63
2023-02-19T16:56:05.485Z,101527.31
2023-02-19T16:58:33.309Z,101529.03
2023-02-19T17:01:02.366Z,101528.88
2023-02-19T17:03:30.038Z,101512.44
2023-02-19T17:05:58.212Z,101527.94
2023-02-19T17:08:34.447Z,101525.41
2023-02-19T17:11:03.275Z,101532.44
2023-02-19T17:13:31.116Z,101531.72
2023-02-19T17:15:59.260Z,101539.72
2023-02-19T17:18:28.460Z,101543.56
2023-02-19T17:20:59.811Z,101539.72
2023-02-19T17:23:27.655Z,101540.38
2023-02-19T17:25:55.288Z,101541.03
2023-02-19T17:28:23.139Z,101543.66
2023-02-19T17:30:50.784Z,101547.03
2023-02-19T17:33:18.439Z,101543.34
2023-02-19T17:35:47.785Z,101538.38
2023-02-19T17:38:15.893Z,101535.63
2023-02-19T17:40:45.185Z,101543.03
2023-02-19T17:43:13.019Z,101546.03
2023-02-19T17:45:40.683Z,101550.47
2023-02-19T17:48:10.821Z,101544.09
2023-02-19T17:50:38.444Z,101534.34
2023-02-19T17:53:07.633Z,101531.25
2023-02-19T17:55:35.313Z,101531.91
2023-02-19T17:58:03.119Z,101530.84
2023-02-19T18:00:32.162Z,101537.41
2023-02-19T18:02:59.804Z,101535.75
2023-02-19T18:05:27.444Z,101544.34
2023-02-19T18:07:55.213Z,101544.94
2023-02-19T18:10:25.280Z,101555.03
2023-02-19T18:12:53.025Z,101550.56
2023-02-19T18:15:22.210Z,101550.06
2023-02-19T18:17:50.100Z,101566.25
2023-02-19T18:20:21.008Z,101572.38
2023-02-19T18:22:48.681Z,101568.91
2023-02-19T18:25:17.172Z,101580.44
2023-02-19T18:27:46.548Z,101574.78
2023-02-19T18:30:17.727Z,101582.13
2023-02-19T18:32:47.589Z,101585.75
2023-02-19T18:35:16.316Z,101578.59
2023-02-19T18:37:44.227Z,101582.13
2023-02-19T18:40:13.109Z,101578.44
2023-02-19T18:42:40.994Z,101578.31
2023-02-19T18:45:10.366Z,101574.44
2023-02-19T18:47:38.257Z,101576.78
2023-02-19T18:50:08.537Z,101581.88
2023-02-19T18:52:36.412Z,101582.09
2023-02-19T18:55:04.166Z,101586.94
2023-02-19T18:57:31.929Z,101590.13
2023-02-19T18:59:59.683Z,101581.59
2023-02-19T19:02:36.372Z,101590.78
2023-02-19T19:05:10.680Z,101591.09
2023-02-19T19:07:38.307Z,101586.44
2023-02-19T19:10:07.370Z,101595.44
2023-02-19T19:12:35.318Z,101594.44
2023-02-19T19:15:03.245Z,101601.75
2023-02-19T19:17:32.263Z,101585.63
2023-02-19T19:19:59.918Z,101593.25
2023-02-19T19:22:27.838Z,101590.78
2023-02-19T19:24:55.487Z,101598.59
2023-02-19T19:27:23.133Z,101596.09
2023-02-19T19:29:51.007Z,101587.81
2023-02-19T19:32:25.016Z,101573.63
2023-02-19T19:34:54.218Z,101576.78
2023-02-19T19:37:21.976Z,101579.81
2023-02-19T19:39:50.083Z,101589.09
2023-02-19T19:42:17.706Z,101589.81
2023-02-19T19:44:47.487Z,101590.97
2023-02-19T19:47:16.271Z,101595.94
2023-02-19T19:49:44.185Z,101596.78
2023-02-19T19:52:13.491Z,101596.47
2023-02-19T19:54:42.292Z,101599.16
2023-02-19T19:57:10.385Z,101607.78
2023-02-19T19:59:39.410Z,101605.13
2023-02-19T20:02:08.356Z,101604.31
2023-02-19T20:04:36.303Z,101606.28
2023-02-19T20:07:04.016Z,101612.63
2023-02-19T20:09:33.175Z,101609.16
2023-02-19T20:12:00.838Z,101613.47
2023-02-19T20:14:29.319Z,101611.81
2023-02-19T20:16:57.316Z,101615.47
2023-02-19T20:19:24.980Z,101620.47
2023-02-19T20:21:53.939Z,101621.13
2023-02-19T20:24:24.378Z,101620.47
2023-02-19T20:26:54.700Z,101627.19
2023-02-19T20:29:22.509Z,101624.81
2023-02-19T20:31:50.927Z,101623.78
2023-02-19T20:34:19.200Z,101631.97
2023-02-19T20:36:48.100Z,101628.16
2023-02-19T20:39:16.324Z,101632.84
2023-02-19T20:41:45.904Z,101626.31
2023-02-19T20:44:15.502Z,101618.50
2023-02-19T20:46:43.395Z,101605.81
2023-02-19T20:49:11.090Z,101586.13
2023-02-19T20:51:44.423Z,101588.47
2023-02-19T20:54:12.163Z,101602.84
2023-02-19T20:56:44.956Z,101590.16
2023-02-19T20:59:13.001Z,101602.84
2023-02-19T21:01:42.416Z,101602.13
2023-02-19T21:04:10.172Z,101610.50
2023-02-19T21:06:37.846Z,101608.50
2023-02-19T21:09:05.945Z,101616.19
2023-02-19T21:11:33.856Z,101624.84
2023-02-19T21:14:01.482Z,101621.00
2023-02-19T21:16:31.501Z,101630.50
2023-02-19T21:19:00.648Z,101622.19
2023-02-19T21:21:30.460Z,101628.16
2023-02-19T21:23:59.903Z,101625.22
2023-02-19T21:26:34.282Z,101631.84
2023-02-19T21:29:02.094Z,101628.53
2023-02-19T21:31:37.038Z,101628.88
2023-02-19T21:34:07.379Z,101618.84
2023-02-19T21:36:35.056Z,101618.06
2023-02-19T21:39:02.862Z,101610.84
2023-02-19T21:41:30.554Z,101602.53
2023-02-19T21:43:58.839Z,101605.53
2023-02-19T21:46:26.841Z,101609.22
2023-02-19T21:48:56.691Z,101621.56
2023-02-19T21:51:32.165Z,101608.22
2023-02-19T21:54:00.096Z,101595.56
2023-02-19T21:56:30.480Z,101602.88
2023-02-19T21:58:58.581Z,101613.19
2023-02-19T22:01:28.720Z,101609.53
2023-02-19T22:03:56.454Z,101608.22
2023-02-19T22:06:26.910Z,101600.72
2023-02-19T22:08:57.154Z,101595.22
2023-02-19T22:11:24.898Z,101593.22
2023-02-19T22:13:52.857Z,101587.88
2023-02-19T22:16:20.960Z,101593.88
2023-02-19T22:18:49.257Z,101596.91
2023-02-19T22:21:17.001Z,101595.56
2023-02-19T22:23:46.092Z,101601.41
2023-02-19T22:26:21.187Z,101599.25
2023-02-19T22:28:48.855Z,101608.22
2023-02-19T22:31:17.080Z,101600.56
2023-02-19T22:33:44.953Z,101613.88
2023-02-19T22:36:16.943Z,101603.56
2023-02-19T22:38:44.783Z,101602.56
2023-02-19T22:41:12.708Z,101620.22
2023-02-19T22:43:41.925Z,101611.22
2023-02-19T22:46:12.508Z,101614.06
2023-02-19T22:48:40.444Z,101620.22
2023-02-19T22:51:13.088Z,101622.88
2023-02-19T22:53:44.711Z,101624.06
2023-02-19T22:56:13.345Z,101620.56
2023-02-19T22:58:43.061Z,101622.88
2023-02-19T23:01:11.415Z,101618.53
2023-02-19T23:03:46.490Z,101621.88
2023-02-19T23:06:14.681Z,101622.38
2023-02-19T23:08:43.475Z,101619.19
2023-02-19T23:11:11.683Z,101616.53
2023-02-19T23:13:39.599Z,101618.88
2023-02-19T23:16:08.787Z,101622.53
2023-02-19T23:18:36.440Z,101626.34
2023-02-19T23:21:04.089Z,101627.00
2023-02-19T23:23:32.037Z,101627.16
2023-02-19T23:25:59.687Z,101632.34
2023-02-19T23:28:27.402Z,101625.84
2023-02-19T23:30:55.101Z,101628.84
2023-02-19T23:33:24.244Z,101628.16
2023-02-19T23:35:51.897Z,101622.63
2023-02-19T23:38:19.662Z,101621.13
2023-02-19T23:40:47.374Z,101616.50
2023-02-19T23:43:15.012Z,101612.16
2023-02-19T23:45:42.749Z,101602.84
2023-02-19T23:48:10.442Z,101611.53
2023-02-19T23:50:39.484Z,101600.19
2023-02-19T23:53:07.165Z,101606.19
2023-02-19T23:55:34.831Z,101593.22
2023-02-19T23:58:02.496Z,101590.19
